Shanghai Express — DPCK — position and weather

sailwx.info

Track history (hours):
 
Tides and Currents Weather Stations Pressure Air Temp Water Temp Dewpoint Dewpoint Depression Visibility Wind Speed Wind Dir Waves Ship Positions

Shanghai Express

Last reported at 2016-May-02 05:33 UTC. Time now 2016-May-06 09:18 UTC.
Position N 30°58' E 032°19'.

Length 320.6 m; beam 42.8 m; draft 14.5 m.

Type: Ship. MMSI: 211367460.

Date/timePositionNaut miles runAvg speedWind from/ knotsBaromVisibWave heightAir tempDewpointWater temp
2016-May-02 05:33N 30°58' E 032°19'41 1.3
2016-Apr-30 21:17N 31°28' E 031°45'0 0.0
2016-Apr-30 20:32N 31°28' E 031°45'0 0.0
2016-Apr-30 19:28N 31°28' E 031°45'2 0.8
2016-Apr-30 17:32N 31°29' E 031°45'7 7.3
2016-Apr-30 16:33N 31°36' E 031°48'1 0.7
2016-Apr-30 15:33N 31°36' E 031°49'2 2.1
2016-Apr-30 14:33N 31°36' E 031°47'1 0.6
2016-Apr-30 13:29N 31°36' E 031°47'3 2.9
2016-Apr-30 12:21N 31°39' E 031°46'7 9.2
2016-Apr-30 11:32N 31°45' E 031°41'1515.3
2016-Apr-30 10:33N 31°50' E 031°24'1917.4
2016-Apr-30 09:29N 31°56' E 031°03'1617.3
2016-Apr-30 08:33N 32°01' E 030°46'1717.0
2016-Apr-30 07:33N 32°07' E 030°27'2216.8
2016-Apr-30 06:14N 32°14' E 030°02'2916.9
2016-Apr-30 04:31N 32°23' E 029°29'1717.4
2016-Apr-30 03:33N 32°29' E 029°11'3817.8
2016-Apr-30 01:25N 32°41' E 028°28'1818.2
2016-Apr-30 00:27N 32°47' E 028°08'64017.7
2016-Apr-28 12:14N 36°14' E 015°54'1318.0
2016-Apr-28 11:30N 36°19' E 015°38'1718.1
2016-Apr-28 10:33N 36°24' E 015°18'2118.2
2016-Apr-28 09:23N 36°31' E 014°53'1518.6
2016-Apr-28 08:33N 36°36' E 014°35'1818.0
2016-Apr-28 07:34N 36°43' E 014°14'1818.1
2016-Apr-28 06:33N 36°50' E 013°53'1817.8
2016-Apr-28 05:33N 36°57' E 013°33'1818.1
2016-Apr-28 04:33N 37°05' E 013°12'1818.2
2016-Apr-28 03:33N 37°13' E 012°51'1818.1
2016-Apr-28 02:33N 37°20' E 012°31'1818.1
2016-Apr-28 01:33N 37°28' E 012°10'1917.7
2016-Apr-28 00:28N 37°38' E 011°50'1617.7
2016-Apr-27 23:33N 37°47' E 011°33'1818.2
2016-Apr-27 22:33N 37°58' E 011°14'2118.2
2016-Apr-27 21:23N 38°10' E 010°52'1518.1
2016-Apr-27 20:33N 38°18' E 010°36'5417.8
2016-Apr-27 17:33N 38°48' E 009°40'1717.0
2016-Apr-27 16:33N 38°58' E 009°22'1616.3
2016-Apr-27 15:33N 39°09' E 009°06'4 4.0
2016-Apr-27 14:29N 39°13' E 009°05'0 0.0
2016-Apr-27 13:31N 39°13' E 009°05'0 0.0
2016-Apr-27 12:31N 39°13' E 009°05'0 0.0
2016-Apr-27 11:30N 39°13' E 009°05'0 0.0
2016-Apr-27 10:33N 39°13' E 009°05'0 0.0
2016-Apr-27 09:33N 39°13' E 009°05'0 0.0
2016-Apr-27 08:32N 39°13' E 009°05'0 0.0
2016-Apr-27 07:32N 39°13' E 009°05'0 0.0
2016-Apr-27 06:31N 39°13' E 009°05'0 0.0
2016-Apr-27 05:31N 39°13' E 009°05'1 0.6
2016-Apr-27 04:33N 39°13' E 009°04'10 9.6
2016-Apr-27 03:33N 39°04' E 009°08'1716.9
2016-Apr-27 02:33N 38°49' E 008°58'38218.6
2016-Apr-26 06:00N 37°06' E 001°12'510.5 050 / 161013.010.8 0.517.514.317.0
2016-Apr-26 05:33N 37°06' E 001°06'1918.0
2016-Apr-26 04:31N 37°01' E 000°44'1717.9
2016-Apr-26 03:34N 36°56' E 000°23'2118.2
2016-Apr-26 02:26N 36°51' W 000°02'1618.5
2016-Apr-26 01:33N 36°47' W 000°21'1918.5
2016-Apr-26 00:33N 36°42' W 000°43'2218.8
2016-Apr-25 23:24N 36°36' W 001°10'20118.5
2016-Apr-25 12:33N 35°59' W 005°14'12018.2
2016-Apr-25 06:00N 35°54' W 007°42'10319.0 010 / 121018.510.8 0.517.514.317.0
2016-Apr-25 00:32N 36°02' W 009°49'5618.6
2016-Apr-24 21:33N 36°05' W 010°58'6518.1
2016-Apr-24 18:00N 36°06' W 012°18'22318.6 010 / 201019.510.8 1.016.511.416.0
2016-Apr-24 06:00N 36°18' W 016°54'31418.8 090 / 81021.010.8 18.015.617.0
2016-Apr-23 13:14N 36°36' W 023°24'1318.7
2016-Apr-23 12:34N 36°37' W 023°40'1918.8
2016-Apr-23 11:33N 36°38' W 024°03'1918.8
2016-Apr-23 10:33N 36°39' W 024°27'1918.6
2016-Apr-23 09:34N 36°40' W 024°50'1918.7
2016-Apr-23 08:34N 36°42' W 025°13'1918.7
2016-Apr-23 07:33N 36°45' W 025°36'1918.6
2016-Apr-23 06:33N 36°48' W 025°59'1818.3
2016-Apr-23 05:34N 36°51' W 026°21'1818.1
2016-Apr-23 04:34N 36°54' W 026°44'1818.2
2016-Apr-23 03:33N 36°58' W 027°06'1918.6
2016-Apr-23 02:33N 37°01' W 027°29'2418.5
2016-Apr-23 01:16N 37°05' W 027°59'1318.6
2016-Apr-23 00:33N 37°07' W 028°15'1818.4
2016-Apr-22 23:33N 37°10' W 028°38'1918.6
2016-Apr-22 22:33N 37°13' W 029°01'1918.8
2016-Apr-22 21:33N 37°17' W 029°24'1918.7
2016-Apr-22 20:31N 37°20' W 029°48'2218.8
2016-Apr-22 19:22N 37°24' W 030°15'  
Track history (hours):
 
Tides and Currents Weather Stations Pressure Air Temp Water Temp Dewpoint Dewpoint Depression Visibility Wind Speed Wind Dir Waves Ship Positions

Shanghai Express

Last reported at 2016-May-02 05:33 UTC. Time now 2016-May-06 09:18 UTC.
Position N 30°58' E 032°19'.

Length 320.6 m; beam 42.8 m; draft 14.5 m.

Type: Ship. MMSI: 211367460.

Date/timePositionNaut miles runAvg speedWind from/ knotsBaromVisibWave heightAir tempDewpointWater temp
2016-May-02 05:33N 30°58' E 032°19'41 1.3
2016-Apr-30 21:17N 31°28' E 031°45'0 0.0
2016-Apr-30 20:32N 31°28' E 031°45'0 0.0
2016-Apr-30 19:28N 31°28' E 031°45'2 0.8
2016-Apr-30 17:32N 31°29' E 031°45'7 7.3
2016-Apr-30 16:33N 31°36' E 031°48'1 0.7
2016-Apr-30 15:33N 31°36' E 031°49'2 2.1
2016-Apr-30 14:33N 31°36' E 031°47'1 0.6
2016-Apr-30 13:29N 31°36' E 031°47'3 2.9
2016-Apr-30 12:21N 31°39' E 031°46'7 9.2
2016-Apr-30 11:32N 31°45' E 031°41'1515.3
2016-Apr-30 10:33N 31°50' E 031°24'1917.4
2016-Apr-30 09:29N 31°56' E 031°03'1617.3
2016-Apr-30 08:33N 32°01' E 030°46'1717.0
2016-Apr-30 07:33N 32°07' E 030°27'2216.8
2016-Apr-30 06:14N 32°14' E 030°02'2916.9
2016-Apr-30 04:31N 32°23' E 029°29'1717.4
2016-Apr-30 03:33N 32°29' E 029°11'3817.8
2016-Apr-30 01:25N 32°41' E 028°28'1818.2
2016-Apr-30 00:27N 32°47' E 028°08'64017.7
2016-Apr-28 12:14N 36°14' E 015°54'1318.0
2016-Apr-28 11:30N 36°19' E 015°38'1718.1
2016-Apr-28 10:33N 36°24' E 015°18'2118.2
2016-Apr-28 09:23N 36°31' E 014°53'1518.6
2016-Apr-28 08:33N 36°36' E 014°35'1818.0
2016-Apr-28 07:34N 36°43' E 014°14'1818.1
2016-Apr-28 06:33N 36°50' E 013°53'1817.8
2016-Apr-28 05:33N 36°57' E 013°33'1818.1
2016-Apr-28 04:33N 37°05' E 013°12'1818.2
2016-Apr-28 03:33N 37°13' E 012°51'1818.1
2016-Apr-28 02:33N 37°20' E 012°31'1818.1
2016-Apr-28 01:33N 37°28' E 012°10'1917.7
2016-Apr-28 00:28N 37°38' E 011°50'1617.7
2016-Apr-27 23:33N 37°47' E 011°33'1818.2
2016-Apr-27 22:33N 37°58' E 011°14'2118.2
2016-Apr-27 21:23N 38°10' E 010°52'1518.1
2016-Apr-27 20:33N 38°18' E 010°36'5417.8
2016-Apr-27 17:33N 38°48' E 009°40'1717.0
2016-Apr-27 16:33N 38°58' E 009°22'1616.3
2016-Apr-27 15:33N 39°09' E 009°06'4 4.0
2016-Apr-27 14:29N 39°13' E 009°05'0 0.0
2016-Apr-27 13:31N 39°13' E 009°05'0 0.0
2016-Apr-27 12:31N 39°13' E 009°05'0 0.0
2016-Apr-27 11:30N 39°13' E 009°05'0 0.0
2016-Apr-27 10:33N 39°13' E 009°05'0 0.0
2016-Apr-27 09:33N 39°13' E 009°05'0 0.0
2016-Apr-27 08:32N 39°13' E 009°05'0 0.0
2016-Apr-27 07:32N 39°13' E 009°05'0 0.0
2016-Apr-27 06:31N 39°13' E 009°05'0 0.0
2016-Apr-27 05:31N 39°13' E 009°05'1 0.6
2016-Apr-27 04:33N 39°13' E 009°04'10 9.6
2016-Apr-27 03:33N 39°04' E 009°08'1716.9
2016-Apr-27 02:33N 38°49' E 008°58'38218.6
2016-Apr-26 06:00N 37°06' E 001°12'510.5 050 / 161013.010.8 0.517.514.317.0
2016-Apr-26 05:33N 37°06' E 001°06'1918.0
2016-Apr-26 04:31N 37°01' E 000°44'1717.9
2016-Apr-26 03:34N 36°56' E 000°23'2118.2
2016-Apr-26 02:26N 36°51' W 000°02'1618.5
2016-Apr-26 01:33N 36°47' W 000°21'1918.5
2016-Apr-26 00:33N 36°42' W 000°43'2218.8
2016-Apr-25 23:24N 36°36' W 001°10'20118.5
2016-Apr-25 12:33N 35°59' W 005°14'12018.2
2016-Apr-25 06:00N 35°54' W 007°42'10319.0 010 / 121018.510.8 0.517.514.317.0
2016-Apr-25 00:32N 36°02' W 009°49'5618.6
2016-Apr-24 21:33N 36°05' W 010°58'6518.1
2016-Apr-24 18:00N 36°06' W 012°18'22318.6 010 / 201019.510.8 1.016.511.416.0
2016-Apr-24 06:00N 36°18' W 016°54'31418.8 090 / 81021.010.8 18.015.617.0
2016-Apr-23 13:14N 36°36' W 023°24'1318.7
2016-Apr-23 12:34N 36°37' W 023°40'1918.8
2016-Apr-23 11:33N 36°38' W 024°03'1918.8
2016-Apr-23 10:33N 36°39' W 024°27'1918.6
2016-Apr-23 09:34N 36°40' W 024°50'1918.7
2016-Apr-23 08:34N 36°42' W 025°13'1918.7
2016-Apr-23 07:33N 36°45' W 025°36'1918.6
2016-Apr-23 06:33N 36°48' W 025°59'1818.3
2016-Apr-23 05:34N 36°51' W 026°21'1818.1
2016-Apr-23 04:34N 36°54' W 026°44'1818.2
2016-Apr-23 03:33N 36°58' W 027°06'1918.6
2016-Apr-23 02:33N 37°01' W 027°29'2418.5
2016-Apr-23 01:16N 37°05' W 027°59'1318.6
2016-Apr-23 00:33N 37°07' W 028°15'1818.4
2016-Apr-22 23:33N 37°10' W 028°38'1918.6
2016-Apr-22 22:33N 37°13' W 029°01'1918.8
2016-Apr-22 21:33N 37°17' W 029°24'1918.7
2016-Apr-22 20:31N 37°20' W 029°48'2218.8
2016-Apr-22 19:22N 37°24' W 030°15'  

Dump ship's entire track history